createdAt,value
2019-04-14T00:00:01.159Z,12.35
2019-04-14T00:05:08.330Z,12.30
2019-04-14T00:10:16.535Z,12.90
2019-04-14T00:15:32.966Z,12.14
2019-04-14T00:20:33.671Z,12.62
2019-04-14T00:25:41.209Z,12.56
2019-04-14T00:30:49.097Z,12.13
2019-04-14T00:35:58.003Z,12.68
2019-04-14T00:41:05.155Z,12.94
2019-04-14T00:46:12.884Z,11.37
2019-04-14T00:51:22.093Z,11.16
2019-04-14T00:56:30.100Z,12.00
2019-04-14T01:01:37.731Z,11.92
2019-04-14T01:06:46.932Z,12.07
2019-04-14T01:11:55.305Z,12.43
2019-04-14T01:17:02.754Z,12.12
2019-04-14T01:22:11.996Z,12.65
2019-04-14T01:27:19.553Z,11.91
2019-04-14T01:32:28.351Z,12.97
2019-04-14T01:37:35.711Z,11.79
2019-04-14T01:42:44.268Z,11.99
2019-04-14T01:47:53.333Z,12.04
2019-04-14T01:53:01.124Z,11.57
2019-04-14T01:58:08.039Z,11.92
2019-04-14T02:03:17.070Z,11.90
2019-04-14T02:08:24.134Z,11.91
2019-04-14T02:13:33.191Z,11.88
2019-04-14T02:18:40.587Z,11.18
2019-04-14T02:23:47.621Z,12.11
2019-04-14T02:28:57.157Z,11.75
2019-04-14T02:34:34.881Z,12.27
2019-04-14T02:39:38.660Z,12.43
2019-04-14T02:44:44.187Z,11.98
2019-04-14T02:50:05.403Z,12.66
2019-04-14T02:54:58.815Z,11.72
2019-04-14T03:00:09.013Z,12.22
2019-04-14T03:05:09.422Z,11.92
2019-04-14T03:10:25.822Z,12.05
2019-04-14T03:15:41.596Z,11.82
2019-04-14T03:20:45.466Z,12.26
2019-04-14T03:31:09.822Z,12.07
2019-04-14T03:41:17.297Z,11.66
2019-04-14T03:46:25.548Z,12.21
2019-04-14T03:56:12.617Z,12.04
2019-04-14T04:01:17.371Z,10.99
2019-04-14T04:06:26.983Z,11.54
2019-04-14T04:11:34.468Z,12.40
2019-04-14T04:16:41.891Z,11.97
2019-04-14T04:21:48.982Z,12.18
2019-04-14T04:26:58.193Z,11.91
2019-04-14T04:32:05.696Z,13.65
2019-04-14T04:37:12.869Z,12.32
2019-04-14T04:42:21.956Z,11.82
2019-04-14T04:47:29.501Z,12.17
2019-04-14T04:52:36.707Z,12.04
2019-04-14T04:57:46.006Z,11.78
2019-04-14T05:02:53.006Z,11.97
2019-04-14T05:08:02.206Z,12.04
2019-04-14T05:13:09.475Z,11.25
2019-04-14T05:18:17.874Z,11.92
2019-04-14T05:23:26.158Z,11.48
2019-04-14T05:28:35.291Z,11.50
2019-04-14T05:33:42.637Z,11.73
2019-04-14T05:38:51.802Z,11.15
2019-04-14T05:44:01.530Z,10.94
2019-04-14T05:49:07.036Z,10.48
2019-04-14T05:54:16.614Z,10.56
2019-04-14T05:59:26.369Z,10.20
2019-04-14T06:04:33.202Z,10.28
2019-04-14T06:09:41.574Z,10.02
2019-04-14T06:14:49.879Z,9.78
2019-04-14T06:19:58.093Z,9.90
2019-04-14T06:25:06.562Z,10.37
2019-04-14T06:30:15.097Z,9.66
2019-04-14T06:35:23.601Z,9.82
2019-04-14T06:40:32.006Z,10.13
2019-04-14T06:45:40.283Z,10.08
2019-04-14T06:50:48.510Z,9.69
2019-04-14T06:55:56.871Z,9.86
2019-04-14T07:01:05.270Z,9.17
2019-04-14T07:06:13.595Z,10.93
2019-04-14T07:11:23.455Z,9.07
2019-04-14T07:16:31.829Z,9.82
2019-04-14T07:21:40.935Z,9.31
2019-04-14T07:26:49.256Z,9.24
2019-04-14T07:31:58.048Z,9.24
2019-04-14T07:37:06.354Z,8.72
2019-04-14T07:42:15.051Z,8.55
2019-04-14T07:47:23.442Z,9.23
2019-04-14T07:52:31.901Z,8.92
2019-04-14T07:57:40.644Z,8.52
2019-04-14T08:02:49.176Z,8.67
2019-04-14T08:07:57.517Z,8.28
2019-04-14T08:13:05.883Z,8.73
2019-04-14T08:18:14.421Z,8.61
2019-04-14T08:23:22.767Z,9.78
2019-04-14T08:28:31.296Z,8.32
2019-04-14T08:33:39.654Z,8.24
2019-04-14T08:38:48.443Z,8.62
2019-04-14T08:43:56.869Z,10.69
2019-04-14T08:49:05.446Z,8.00
2019-04-14T08:54:13.835Z,8.66
2019-04-14T08:59:22.410Z,8.59
2019-04-14T09:04:31.773Z,8.80
2019-04-14T09:09:42.632Z,8.89
2019-04-14T09:14:41.632Z,8.96
2019-04-14T09:19:50.008Z,8.73
2019-04-14T09:24:59.169Z,10.41
2019-04-14T09:30:07.799Z,9.67
2019-04-14T09:35:18.576Z,8.98
2019-04-14T09:40:19.663Z,8.84
2019-04-14T09:45:18.180Z,8.81
2019-04-14T09:50:27.017Z,11.87
2019-04-14T09:55:37.600Z,10.30
2019-04-14T10:00:36.242Z,9.81
2019-04-14T10:05:48.503Z,8.84
2019-04-14T10:10:46.972Z,9.19
2019-04-14T10:15:55.351Z,8.21
2019-04-14T10:21:03.634Z,9.58
2019-04-14T10:26:11.835Z,11.41
2019-04-14T10:31:22.249Z,10.67
2019-04-14T10:36:20.573Z,9.71
2019-04-14T10:41:29.038Z,10.53
2019-04-14T10:46:37.356Z,12.50
2019-04-14T10:51:45.656Z,12.83
2019-04-14T10:56:54.012Z,13.49
2019-04-14T11:02:02.441Z,13.73
2019-04-14T11:07:10.890Z,17.74
2019-04-14T11:12:19.192Z,17.62
2019-04-14T11:17:27.605Z,15.73
2019-04-14T11:22:35.893Z,15.27
2019-04-14T11:27:44.277Z,13.61
2019-04-14T11:32:52.514Z,12.31
2019-04-14T11:38:00.853Z,14.87
2019-04-14T11:43:09.092Z,12.82
2019-04-14T11:48:17.603Z,12.92
2019-04-14T11:53:25.963Z,12.23
2019-04-14T11:58:34.309Z,11.99
2019-04-14T12:03:42.646Z,12.14
2019-04-14T12:08:51.058Z,11.83
2019-04-14T12:13:59.428Z,11.25
2019-04-14T12:19:07.949Z,11.17
2019-04-14T12:24:16.353Z,11.62
2019-04-14T12:29:26.023Z,11.30
2019-04-14T12:34:32.977Z,14.95
2019-04-14T12:39:41.315Z,23.99
2019-04-14T12:44:49.790Z,10.43
2019-04-14T12:49:58.087Z,13.85
2019-04-14T12:55:06.454Z,13.31
2019-04-14T13:00:14.838Z,13.23
2019-04-14T13:05:25.944Z,12.27
2019-04-14T13:10:24.449Z,13.61
2019-04-14T13:15:32.885Z,13.32
2019-04-14T13:20:44.137Z,13.05
2019-04-14T13:43:49.269Z,14.10
2019-04-14T13:44:57.773Z,14.64
2019-04-14T13:50:06.309Z,12.77
2019-04-14T13:55:17.397Z,14.45
2019-04-14T14:00:18.785Z,14.90
2019-04-14T14:05:17.031Z,15.73
2019-04-14T14:10:25.386Z,15.71
2019-04-14T14:15:34.114Z,14.10
2019-04-14T14:20:42.666Z,14.07
2019-04-14T14:25:59.291Z,13.54
2019-04-14T14:30:58.175Z,13.13
2019-04-14T14:36:06.537Z,14.04
2019-04-14T14:41:14.978Z,16.04
2019-04-14T14:46:23.870Z,21.34
2019-04-14T14:51:32.281Z,15.13
2019-04-14T14:56:40.607Z,16.62
2019-04-14T15:01:50.097Z,18.46
2019-04-14T15:06:58.507Z,15.74
2019-04-14T15:12:06.809Z,15.88
2019-04-14T15:17:15.277Z,15.38
2019-04-14T15:22:23.999Z,14.42
2019-04-14T15:27:32.302Z,14.08
2019-04-14T15:32:40.723Z,15.50
2019-04-14T15:37:49.426Z,15.40
2019-04-14T15:42:58.239Z,15.22
2019-04-14T15:48:07.203Z,13.32
2019-04-14T15:53:16.130Z,11.88
2019-04-14T15:58:24.653Z,12.05
2019-04-14T16:03:33.294Z,12.29
2019-04-14T16:08:41.985Z,12.89
2019-04-14T16:13:50.485Z,11.52
2019-04-14T16:18:58.818Z,10.57
2019-04-14T16:24:07.516Z,11.56
2019-04-14T16:29:16.165Z,10.26
2019-04-14T16:34:24.494Z,12.15
2019-04-14T16:39:33.136Z,10.76
2019-04-14T16:44:42.593Z,9.98
2019-04-14T16:49:51.159Z,10.72
2019-04-14T16:54:59.713Z,8.89
2019-04-14T17:00:08.162Z,11.40
2019-04-14T17:05:16.650Z,9.41
2019-04-14T17:10:26.570Z,8.38
2019-04-14T17:15:34.974Z,9.78
2019-04-14T17:20:44.190Z,11.08
2019-04-14T17:25:52.817Z,10.12
2019-04-14T17:31:03.037Z,11.72
2019-04-14T17:36:01.419Z,12.16
2019-04-14T17:41:10.375Z,9.51
2019-04-14T17:46:18.894Z,11.16
2019-04-14T17:51:27.423Z,10.17
2019-04-14T17:56:35.835Z,12.10
2019-04-14T18:01:44.573Z,9.01
2019-04-14T18:06:53.206Z,7.97
2019-04-14T18:12:01.611Z,8.11
2019-04-14T18:17:09.942Z,8.85
2019-04-14T18:22:18.791Z,9.04
2019-04-14T18:27:27.436Z,8.29
2019-04-14T18:32:35.808Z,10.27
2019-04-14T18:37:44.594Z,9.82
2019-04-14T18:43:02.554Z,10.25
2019-04-14T18:48:08.694Z,9.77
2019-04-14T18:53:09.304Z,10.75
2019-04-14T18:58:08.198Z,16.93
2019-04-14T19:03:16.524Z,12.85
2019-04-14T19:08:24.823Z,18.34
2019-04-14T19:13:34.036Z,9.25
2019-04-14T19:18:42.531Z,9.39
2019-04-14T19:23:53.549Z,9.48
2019-04-14T19:28:52.039Z,9.70
2019-04-14T19:34:02.290Z,9.84
2019-04-14T19:39:02.328Z,10.03
2019-04-14T19:44:11.207Z,9.91
2019-04-14T19:49:19.563Z,9.40
2019-04-14T19:54:27.923Z,9.80
2019-04-14T19:59:36.249Z,11.25
2019-04-14T20:04:44.410Z,11.06
2019-04-14T20:09:53.266Z,9.05
2019-04-14T20:15:01.683Z,9.40
2019-04-14T20:20:10.105Z,8.00
2019-04-14T20:25:18.592Z,8.71
2019-04-14T20:30:27.093Z,9.06
2019-04-14T20:35:35.422Z,8.94
2019-04-14T20:40:43.709Z,8.15
2019-04-14T20:45:52.189Z,9.07
2019-04-14T20:51:00.583Z,8.26
2019-04-14T20:56:09.137Z,7.24
2019-04-14T21:01:17.338Z,7.45
2019-04-14T21:06:26.692Z,7.00
2019-04-14T21:11:36.417Z,7.37
2019-04-14T21:16:44.897Z,7.13
2019-04-14T21:21:53.418Z,6.25
2019-04-14T21:27:01.759Z,6.03
2019-04-14T21:32:10.097Z,5.52
2019-04-14T21:37:18.370Z,5.25
2019-04-14T21:42:26.709Z,4.96
2019-04-14T21:47:34.982Z,5.36
2019-04-14T21:52:43.240Z,5.09
2019-04-14T21:57:52.023Z,4.63
2019-04-14T22:03:00.233Z,5.18
2019-04-14T22:08:08.747Z,5.28
2019-04-14T22:13:17.047Z,4.74
2019-04-14T22:18:25.909Z,4.76
2019-04-14T22:23:34.431Z,5.01
2019-04-14T22:28:43.417Z,5.25
2019-04-14T22:33:51.817Z,5.01
2019-04-14T22:39:00.610Z,4.67
2019-04-14T22:44:09.027Z,5.32
2019-04-14T22:49:18.139Z,4.85
2019-04-14T22:54:26.668Z,4.91
2019-04-14T22:59:34.941Z,4.75
2019-04-14T23:04:43.266Z,5.03
2019-04-14T23:09:51.393Z,5.11
2019-04-14T23:14:59.680Z,4.75
2019-04-14T23:20:07.999Z,5.55
2019-04-14T23:25:16.337Z,6.24
2019-04-14T23:30:25.112Z,6.89
2019-04-14T23:35:33.621Z,5.93
2019-04-14T23:40:41.990Z,7.07
2019-04-14T23:45:50.584Z,5.17
2019-04-14T23:50:58.759Z,5.22
2019-04-14T23:56:07.002Z,5.02
